sensor_id;sensor_type;location;lat;lon;timestamp;P1;durP1;ratioP1;P2;durP2;ratioP2
4420;SDS011;11824;51.178;13.546;2022-09-09T00:00:30;2.87;;;2.40;;
4420;SDS011;11824;51.178;13.546;2022-09-09T00:03:08;3.13;;;2.83;;
4420;SDS011;11824;51.178;13.546;2022-09-09T00:05:47;2.53;;;2.33;;
4420;SDS011;11824;51.178;13.546;2022-09-09T00:08:24;6.83;;;2.40;;
4420;SDS011;11824;51.178;13.546;2022-09-09T00:11:03;2.97;;;2.53;;
4420;SDS011;11824;51.178;13.546;2022-09-09T00:13:34;2.63;;;2.20;;
4420;SDS011;11824;51.178;13.546;2022-09-09T00:16:07;10.83;;;2.27;;
4420;SDS011;11824;51.178;13.546;2022-09-09T00:18:49;6.33;;;2.60;;
4420;SDS011;11824;51.178;13.546;2022-09-09T00:21:24;10.53;;;2.87;;
4420;SDS011;11824;51.178;13.546;2022-09-09T00:23:59;13.53;;;2.83;;
4420;SDS011;11824;51.178;13.546;2022-09-09T00:26:38;2.37;;;2.17;;
4420;SDS011;11824;51.178;13.546;2022-09-09T00:29:10;4.80;;;2.80;;
4420;SDS011;11824;51.178;13.546;2022-09-09T00:31:44;3.27;;;2.97;;
4420;SDS011;11824;51.178;13.546;2022-09-09T00:34:16;3.33;;;2.83;;
4420;SDS011;11824;51.178;13.546;2022-09-09T00:36:48;6.07;;;2.80;;
4420;SDS011;11824;51.178;13.546;2022-09-09T00:39:22;4.77;;;2.30;;
4420;SDS011;11824;51.178;13.546;2022-09-09T00:41:59;4.20;;;2.70;;
4420;SDS011;11824;51.178;13.546;2022-09-09T00:44:43;3.63;;;2.60;;
4420;SDS011;11824;51.178;13.546;2022-09-09T00:50:13;5.60;;;2.33;;
4420;SDS011;11824;51.178;13.546;2022-09-09T00:53:02;5.40;;;3.37;;
4420;SDS011;11824;51.178;13.546;2022-09-09T00:55:44;3.93;;;3.00;;
4420;SDS011;11824;51.178;13.546;2022-09-09T00:58:16;4.77;;;2.57;;
4420;SDS011;11824;51.178;13.546;2022-09-09T01:00:46;2.57;;;2.37;;
4420;SDS011;11824;51.178;13.546;2022-09-09T01:03:24;3.27;;;3.07;;
4420;SDS011;11824;51.178;13.546;2022-09-09T01:11:42;3.10;;;2.37;;
4420;SDS011;11824;51.178;13.546;2022-09-09T01:14:29;4.00;;;2.93;;
4420;SDS011;11824;51.178;13.546;2022-09-09T01:17:08;7.10;;;2.40;;
4420;SDS011;11824;51.178;13.546;2022-09-09T01:19:47;5.97;;;2.60;;
4420;SDS011;11824;51.178;13.546;2022-09-09T01:22:29;3.50;;;2.03;;
4420;SDS011;11824;51.178;13.546;2022-09-09T01:25:12;7.33;;;3.03;;
4420;SDS011;11824;51.178;13.546;2022-09-09T01:27:57;7.00;;;2.27;;
4420;SDS011;11824;51.178;13.546;2022-09-09T01:30:29;3.03;;;2.80;;
4420;SDS011;11824;51.178;13.546;2022-09-09T01:33:00;3.00;;;2.77;;
4420;SDS011;11824;51.178;13.546;2022-09-09T01:35:32;9.10;;;2.70;;
4420;SDS011;11824;51.178;13.546;2022-09-09T01:38:05;6.40;;;2.37;;
4420;SDS011;11824;51.178;13.546;2022-09-09T01:40:34;4.27;;;2.03;;
4420;SDS011;11824;51.178;13.546;2022-09-09T01:43:04;3.17;;;2.20;;
4420;SDS011;11824;51.178;13.546;2022-09-09T01:45:34;3.43;;;2.17;;
4420;SDS011;11824;51.178;13.546;2022-09-09T01:48:03;3.50;;;2.80;;
4420;SDS011;11824;51.178;13.546;2022-09-09T01:50:32;4.70;;;2.70;;
4420;SDS011;11824;51.178;13.546;2022-09-09T01:53:00;3.20;;;2.23;;
4420;SDS011;11824;51.178;13.546;2022-09-09T01:55:31;3.57;;;2.20;;
4420;SDS011;11824;51.178;13.546;2022-09-09T01:58:08;7.70;;;2.67;;
4420;SDS011;11824;51.178;13.546;2022-09-09T02:00:45;5.10;;;2.33;;
4420;SDS011;11824;51.178;13.546;2022-09-09T02:03:21;10.93;;;3.50;;
4420;SDS011;11824;51.178;13.546;2022-09-09T02:05:55;4.23;;;2.10;;
4420;SDS011;11824;51.178;13.546;2022-09-09T02:08:32;3.03;;;2.03;;
4420;SDS011;11824;51.178;13.546;2022-09-09T02:11:07;6.73;;;2.13;;
4420;SDS011;11824;51.178;13.546;2022-09-09T02:13:40;2.47;;;2.27;;
4420;SDS011;11824;51.178;13.546;2022-09-09T02:16:12;3.90;;;2.30;;
4420;SDS011;11824;51.178;13.546;2022-09-09T02:18:47;2.63;;;2.30;;
4420;SDS011;11824;51.178;13.546;2022-09-09T02:21:18;5.53;;;2.67;;
4420;SDS011;11824;51.178;13.546;2022-09-09T02:23:49;7.73;;;2.00;;
4420;SDS011;11824;51.178;13.546;2022-09-09T02:26:20;4.47;;;2.33;;
4420;SDS011;11824;51.178;13.546;2022-09-09T02:28:51;2.80;;;2.10;;
4420;SDS011;11824;51.178;13.546;2022-09-09T02:31:23;3.03;;;2.27;;
4420;SDS011;11824;51.178;13.546;2022-09-09T02:33:54;2.07;;;1.97;;
4420;SDS011;11824;51.178;13.546;2022-09-09T02:36:25;2.13;;;2.03;;
4420;SDS011;11824;51.178;13.546;2022-09-09T02:38:56;4.20;;;2.33;;
4420;SDS011;11824;51.178;13.546;2022-09-09T02:41:26;5.97;;;2.07;;
4420;SDS011;11824;51.178;13.546;2022-09-09T02:44:00;3.00;;;2.10;;
4420;SDS011;11824;51.178;13.546;2022-09-09T02:46:43;8.60;;;1.90;;
4420;SDS011;11824;51.178;13.546;2022-09-09T02:49:24;3.00;;;2.37;;
4420;SDS011;11824;51.178;13.546;2022-09-09T02:52:00;3.10;;;2.27;;
4420;SDS011;11824;51.178;13.546;2022-09-09T02:54:32;2.83;;;2.17;;
4420;SDS011;11824;51.178;13.546;2022-09-09T02:57:05;2.90;;;2.30;;
4420;SDS011;11824;51.178;13.546;2022-09-09T02:59:39;5.20;;;2.30;;
4420;SDS011;11824;51.178;13.546;2022-09-09T03:02:07;3.00;;;1.90;;
4420;SDS011;11824;51.178;13.546;2022-09-09T03:04:37;2.27;;;2.07;;
4420;SDS011;11824;51.178;13.546;2022-09-09T03:07:06;3.63;;;2.17;;
4420;SDS011;11824;51.178;13.546;2022-09-09T03:09:36;3.30;;;2.00;;
4420;SDS011;11824;51.178;13.546;2022-09-09T03:12:04;6.90;;;3.33;;
4420;SDS011;11824;51.178;13.546;2022-09-09T03:14:33;7.13;;;2.40;;
4420;SDS011;11824;51.178;13.546;2022-09-09T03:17:03;4.10;;;2.70;;
4420;SDS011;11824;51.178;13.546;2022-09-09T03:19:32;2.40;;;1.67;;
4420;SDS011;11824;51.178;13.546;2022-09-09T03:22:01;5.37;;;2.50;;
4420;SDS011;11824;51.178;13.546;2022-09-09T03:24:30;2.17;;;1.90;;
4420;SDS011;11824;51.178;13.546;2022-09-09T03:26:58;26.63;;;2.83;;
4420;SDS011;11824;51.178;13.546;2022-09-09T03:29:27;5.13;;;3.07;;
4420;SDS011;11824;51.178;13.546;2022-09-09T03:31:55;3.60;;;2.80;;
4420;SDS011;11824;51.178;13.546;2022-09-09T03:34:25;4.67;;;2.77;;
4420;SDS011;11824;51.178;13.546;2022-09-09T03:36:54;3.03;;;2.33;;
4420;SDS011;11824;51.178;13.546;2022-09-09T03:39:22;3.87;;;2.20;;
4420;SDS011;11824;51.178;13.546;2022-09-09T03:41:51;9.33;;;3.00;;
4420;SDS011;11824;51.178;13.546;2022-09-09T03:44:19;6.20;;;2.10;;
4420;SDS011;11824;51.178;13.546;2022-09-09T03:46:48;6.10;;;2.37;;
4420;SDS011;11824;51.178;13.546;2022-09-09T03:49:16;5.67;;;2.30;;
4420;SDS011;11824;51.178;13.546;2022-09-09T03:51:47;2.60;;;2.30;;
4420;SDS011;11824;51.178;13.546;2022-09-09T03:54:16;5.33;;;2.10;;
4420;SDS011;11824;51.178;13.546;2022-09-09T03:56:44;18.80;;;2.67;;
4420;SDS011;11824;51.178;13.546;2022-09-09T03:59:13;3.90;;;2.00;;
4420;SDS011;11824;51.178;13.546;2022-09-09T04:01:42;8.83;;;1.80;;
4420;SDS011;11824;51.178;13.546;2022-09-09T04:04:12;4.20;;;1.87;;
4420;SDS011;11824;51.178;13.546;2022-09-09T04:06:40;5.93;;;2.33;;
4420;SDS011;11824;51.178;13.546;2022-09-09T04:09:10;3.40;;;2.20;;
4420;SDS011;11824;51.178;13.546;2022-09-09T04:11:39;4.83;;;2.30;;
4420;SDS011;11824;51.178;13.546;2022-09-09T04:14:08;4.43;;;2.67;;
4420;SDS011;11824;51.178;13.546;2022-09-09T04:16:36;2.10;;;2.00;;
4420;SDS011;11824;51.178;13.546;2022-09-09T04:19:05;4.20;;;2.10;;
4420;SDS011;11824;51.178;13.546;2022-09-09T04:21:34;12.17;;;3.00;;
4420;SDS011;11824;51.178;13.546;2022-09-09T04:24:02;12.10;;;3.23;;
4420;SDS011;11824;51.178;13.546;2022-09-09T04:26:34;3.53;;;2.50;;
4420;SDS011;11824;51.178;13.546;2022-09-09T04:29:04;7.17;;;2.00;;
4420;SDS011;11824;51.178;13.546;2022-09-09T04:31:33;3.50;;;2.43;;
4420;SDS011;11824;51.178;13.546;2022-09-09T04:34:02;3.87;;;2.23;;
4420;SDS011;11824;51.178;13.546;2022-09-09T04:36:31;5.40;;;1.83;;
4420;SDS011;11824;51.178;13.546;2022-09-09T04:39:01;4.40;;;2.20;;
4420;SDS011;11824;51.178;13.546;2022-09-09T04:41:29;12.03;;;3.10;;
4420;SDS011;11824;51.178;13.546;2022-09-09T04:44:00;4.97;;;3.10;;
4420;SDS011;11824;51.178;13.546;2022-09-09T04:46:29;3.33;;;2.07;;
4420;SDS011;11824;51.178;13.546;2022-09-09T04:48:59;3.47;;;2.50;;
4420;SDS011;11824;51.178;13.546;2022-09-09T04:51:27;13.00;;;2.80;;
4420;SDS011;11824;51.178;13.546;2022-09-09T04:53:57;6.13;;;2.13;;
4420;SDS011;11824;51.178;13.546;2022-09-09T04:56:25;7.37;;;2.50;;
4420;SDS011;11824;51.178;13.546;2022-09-09T04:58:54;13.47;;;3.77;;
4420;SDS011;11824;51.178;13.546;2022-09-09T05:01:24;13.03;;;2.80;;
4420;SDS011;11824;51.178;13.546;2022-09-09T05:03:53;7.47;;;2.70;;
4420;SDS011;11824;51.178;13.546;2022-09-09T05:06:21;3.63;;;2.00;;
4420;SDS011;11824;51.178;13.546;2022-09-09T05:08:51;9.20;;;2.50;;
4420;SDS011;11824;51.178;13.546;2022-09-09T05:11:20;6.73;;;2.80;;
4420;SDS011;11824;51.178;13.546;2022-09-09T05:13:50;10.60;;;3.63;;
4420;SDS011;11824;51.178;13.546;2022-09-09T05:16:20;11.30;;;2.83;;
4420;SDS011;11824;51.178;13.546;2022-09-09T05:18:50;19.40;;;4.10;;
4420;SDS011;11824;51.178;13.546;2022-09-09T05:21:19;13.93;;;4.00;;
4420;SDS011;11824;51.178;13.546;2022-09-09T05:23:50;6.83;;;3.07;;
4420;SDS011;11824;51.178;13.546;2022-09-09T05:26:20;9.70;;;2.60;;
4420;SDS011;11824;51.178;13.546;2022-09-09T05:28:50;2.70;;;2.03;;
4420;SDS011;11824;51.178;13.546;2022-09-09T05:31:19;8.30;;;2.70;;
4420;SDS011;11824;51.178;13.546;2022-09-09T05:33:48;8.27;;;3.13;;
4420;SDS011;11824;51.178;13.546;2022-09-09T05:36:19;9.93;;;3.00;;
4420;SDS011;11824;51.178;13.546;2022-09-09T05:38:48;3.97;;;2.30;;
4420;SDS011;11824;51.178;13.546;2022-09-09T05:41:19;2.10;;;1.90;;
4420;SDS011;11824;51.178;13.546;2022-09-09T05:43:49;8.13;;;2.37;;
4420;SDS011;11824;51.178;13.546;2022-09-09T05:46:18;8.60;;;2.00;;
4420;SDS011;11824;51.178;13.546;2022-09-09T05:48:48;4.97;;;2.00;;
4420;SDS011;11824;51.178;13.546;2022-09-09T05:51:20;8.30;;;2.60;;
4420;SDS011;11824;51.178;13.546;2022-09-09T05:53:50;3.27;;;2.20;;
4420;SDS011;11824;51.178;13.546;2022-09-09T05:56:19;4.20;;;2.03;;
4420;SDS011;11824;51.178;13.546;2022-09-09T05:58:50;2.77;;;2.10;;
4420;SDS011;11824;51.178;13.546;2022-09-09T06:01:21;5.07;;;2.40;;
4420;SDS011;11824;51.178;13.546;2022-09-09T06:03:53;7.27;;;2.10;;
4420;SDS011;11824;51.178;13.546;2022-09-09T06:06:22;9.07;;;2.50;;
4420;SDS011;11824;51.178;13.546;2022-09-09T06:08:53;7.50;;;2.40;;
4420;SDS011;11824;51.178;13.546;2022-09-09T06:11:24;5.27;;;2.50;;
4420;SDS011;11824;51.178;13.546;2022-09-09T06:13:57;4.63;;;2.00;;
4420;SDS011;11824;51.178;13.546;2022-09-09T06:16:27;3.73;;;2.10;;
4420;SDS011;11824;51.178;13.546;2022-09-09T06:19:00;4.67;;;2.40;;
4420;SDS011;11824;51.178;13.546;2022-09-09T06:21:30;7.40;;;2.57;;
4420;SDS011;11824;51.178;13.546;2022-09-09T06:24:00;4.90;;;2.30;;
4420;SDS011;11824;51.178;13.546;2022-09-09T06:26:29;3.80;;;1.93;;
4420;SDS011;11824;51.178;13.546;2022-09-09T06:28:59;6.80;;;2.57;;
4420;SDS011;11824;51.178;13.546;2022-09-09T06:31:30;9.30;;;2.70;;
4420;SDS011;11824;51.178;13.546;2022-09-09T06:34:03;9.77;;;2.00;;
4420;SDS011;11824;51.178;13.546;2022-09-09T06:36:34;7.20;;;2.30;;
4420;SDS011;11824;51.178;13.546;2022-09-09T06:39:04;3.73;;;2.37;;
4420;SDS011;11824;51.178;13.546;2022-09-09T06:41:40;6.00;;;2.47;;
4420;SDS011;11824;51.178;13.546;2022-09-09T06:44:09;3.80;;;1.87;;
4420;SDS011;11824;51.178;13.546;2022-09-09T06:46:38;4.97;;;2.60;;
4420;SDS011;11824;51.178;13.546;2022-09-09T06:49:09;4.83;;;1.60;;
4420;SDS011;11824;51.178;13.546;2022-09-09T06:51:39;4.37;;;2.10;;
4420;SDS011;11824;51.178;13.546;2022-09-09T06:54:09;6.63;;;2.30;;
4420;SDS011;11824;51.178;13.546;2022-09-09T06:56:39;8.00;;;2.20;;
4420;SDS011;11824;51.178;13.546;2022-09-09T06:59:10;3.90;;;2.03;;
4420;SDS011;11824;51.178;13.546;2022-09-09T07:01:40;8.17;;;2.20;;
4420;SDS011;11824;51.178;13.546;2022-09-09T07:04:11;5.33;;;2.13;;
4420;SDS011;11824;51.178;13.546;2022-09-09T07:06:41;5.37;;;2.53;;
4420;SDS011;11824;51.178;13.546;2022-09-09T07:09:12;7.50;;;2.10;;
4420;SDS011;11824;51.178;13.546;2022-09-09T07:11:43;2.73;;;1.73;;
4420;SDS011;11824;51.178;13.546;2022-09-09T07:14:13;6.70;;;2.80;;
4420;SDS011;11824;51.178;13.546;2022-09-09T07:16:43;5.23;;;1.50;;
4420;SDS011;11824;51.178;13.546;2022-09-09T07:19:14;5.27;;;1.60;;
4420;SDS011;11824;51.178;13.546;2022-09-09T07:21:42;5.67;;;2.37;;
4420;SDS011;11824;51.178;13.546;2022-09-09T07:24:11;9.33;;;1.90;;
4420;SDS011;11824;51.178;13.546;2022-09-09T07:26:40;5.00;;;1.80;;
4420;SDS011;11824;51.178;13.546;2022-09-09T07:29:10;3.90;;;1.70;;
4420;SDS011;11824;51.178;13.546;2022-09-09T07:31:45;8.57;;;2.20;;
4420;SDS011;11824;51.178;13.546;2022-09-09T07:34:16;8.33;;;2.07;;
4420;SDS011;11824;51.178;13.546;2022-09-09T07:36:45;5.23;;;2.00;;
4420;SDS011;11824;51.178;13.546;2022-09-09T07:39:15;5.60;;;2.07;;
4420;SDS011;11824;51.178;13.546;2022-09-09T07:41:44;10.90;;;2.30;;
4420;SDS011;11824;51.178;13.546;2022-09-09T07:44:15;6.23;;;2.70;;
4420;SDS011;11824;51.178;13.546;2022-09-09T07:46:48;5.47;;;2.20;;
4420;SDS011;11824;51.178;13.546;2022-09-09T07:49:18;3.40;;;2.23;;
4420;SDS011;11824;51.178;13.546;2022-09-09T07:51:54;6.00;;;2.37;;
4420;SDS011;11824;51.178;13.546;2022-09-09T07:54:25;8.10;;;2.60;;
4420;SDS011;11824;51.178;13.546;2022-09-09T07:56:53;4.27;;;2.30;;
4420;SDS011;11824;51.178;13.546;2022-09-09T07:59:22;5.73;;;2.47;;
4420;SDS011;11824;51.178;13.546;2022-09-09T08:01:51;2.03;;;1.80;;
4420;SDS011;11824;51.178;13.546;2022-09-09T08:04:23;3.93;;;1.93;;
4420;SDS011;11824;51.178;13.546;2022-09-09T08:06:54;8.83;;;2.30;;
4420;SDS011;11824;51.178;13.546;2022-09-09T08:09:25;8.43;;;1.90;;
4420;SDS011;11824;51.178;13.546;2022-09-09T08:11:55;6.90;;;2.10;;
4420;SDS011;11824;51.178;13.546;2022-09-09T08:14:25;7.30;;;3.10;;
4420;SDS011;11824;51.178;13.546;2022-09-09T08:16:53;4.00;;;1.90;;
4420;SDS011;11824;51.178;13.546;2022-09-09T08:19:24;6.60;;;2.70;;
4420;SDS011;11824;51.178;13.546;2022-09-09T08:21:55;4.20;;;2.10;;
4420;SDS011;11824;51.178;13.546;2022-09-09T08:24:23;4.73;;;2.77;;
4420;SDS011;11824;51.178;13.546;2022-09-09T08:26:52;6.80;;;1.90;;
4420;SDS011;11824;51.178;13.546;2022-09-09T08:29:20;3.23;;;1.40;;
4420;SDS011;11824;51.178;13.546;2022-09-09T08:31:50;3.00;;;2.10;;
4420;SDS011;11824;51.178;13.546;2022-09-09T08:34:21;4.50;;;2.17;;
4420;SDS011;11824;51.178;13.546;2022-09-09T08:36:53;6.77;;;2.30;;
4420;SDS011;11824;51.178;13.546;2022-09-09T08:39:21;10.30;;;2.50;;
4420;SDS011;11824;51.178;13.546;2022-09-09T08:42:04;4.17;;;1.60;;
4420;SDS011;11824;51.178;13.546;2022-09-09T08:45:00;7.13;;;1.60;;
4420;SDS011;11824;51.178;13.546;2022-09-09T08:47:41;3.17;;;1.77;;
4420;SDS011;11824;51.178;13.546;2022-09-09T08:50:20;4.70;;;2.03;;
4420;SDS011;11824;51.178;13.546;2022-09-09T08:52:54;4.43;;;1.33;;
4420;SDS011;11824;51.178;13.546;2022-09-09T08:55:31;3.17;;;1.53;;
4420;SDS011;11824;51.178;13.546;2022-09-09T08:58:10;5.10;;;1.20;;
4420;SDS011;11824;51.178;13.546;2022-09-09T09:00:44;9.13;;;2.00;;
4420;SDS011;11824;51.178;13.546;2022-09-09T09:03:28;3.30;;;1.30;;
4420;SDS011;11824;51.178;13.546;2022-09-09T09:06:04;2.93;;;1.23;;
4420;SDS011;11824;51.178;13.546;2022-09-09T09:08:43;3.07;;;1.23;;
4420;SDS011;11824;51.178;13.546;2022-09-09T09:11:17;3.77;;;1.60;;
4420;SDS011;11824;51.178;13.546;2022-09-09T09:13:47;3.23;;;1.23;;
4420;SDS011;11824;51.178;13.546;2022-09-09T09:16:21;3.33;;;1.20;;
4420;SDS011;11824;51.178;13.546;2022-09-09T09:18:58;2.60;;;1.20;;
4420;SDS011;11824;51.178;13.546;2022-09-09T09:21:29;2.67;;;1.20;;
4420;SDS011;11824;51.178;13.546;2022-09-09T09:24:12;4.53;;;1.40;;
4420;SDS011;11824;51.178;13.546;2022-09-09T09:26:47;4.17;;;1.27;;
4420;SDS011;11824;51.178;13.546;2022-09-09T09:29:17;4.03;;;1.33;;
4420;SDS011;11824;51.178;13.546;2022-09-09T09:31:48;4.10;;;1.70;;
4420;SDS011;11824;51.178;13.546;2022-09-09T09:34:22;4.63;;;2.03;;
4420;SDS011;11824;51.178;13.546;2022-09-09T09:36:52;4.00;;;1.87;;
4420;SDS011;11824;51.178;13.546;2022-09-09T09:39:26;7.10;;;1.80;;
4420;SDS011;11824;51.178;13.546;2022-09-09T09:42:17;4.03;;;1.10;;
4420;SDS011;11824;51.178;13.546;2022-09-09T09:44:49;3.27;;;1.30;;
4420;SDS011;11824;51.178;13.546;2022-09-09T09:47:56;3.53;;;1.27;;
4420;SDS011;11824;51.178;13.546;2022-09-09T09:50:32;3.90;;;1.20;;
4420;SDS011;11824;51.178;13.546;2022-09-09T09:53:03;1.67;;;1.30;;
4420;SDS011;11824;51.178;13.546;2022-09-09T09:55:59;7.30;;;1.43;;
4420;SDS011;11824;51.178;13.546;2022-09-09T09:58:33;5.83;;;1.70;;
4420;SDS011;11824;51.178;13.546;2022-09-09T10:01:18;5.47;;;1.30;;
4420;SDS011;11824;51.178;13.546;2022-09-09T10:03:51;3.23;;;1.20;;
4420;SDS011;11824;51.178;13.546;2022-09-09T10:06:28;4.93;;;1.20;;
4420;SDS011;11824;51.178;13.546;2022-09-09T10:08:59;7.77;;;1.40;;
4420;SDS011;11824;51.178;13.546;2022-09-09T10:11:40;8.30;;;1.60;;
4420;SDS011;11824;51.178;13.546;2022-09-09T10:14:17;3.77;;;1.57;;
4420;SDS011;11824;51.178;13.546;2022-09-09T10:16:52;2.67;;;1.20;;
4420;SDS011;11824;51.178;13.546;2022-09-09T10:19:33;4.07;;;1.70;;
4420;SDS011;11824;51.178;13.546;2022-09-09T10:22:16;4.43;;;1.30;;
4420;SDS011;11824;51.178;13.546;2022-09-09T10:24:57;4.70;;;1.33;;
4420;SDS011;11824;51.178;13.546;2022-09-09T10:28:04;5.50;;;1.63;;
4420;SDS011;11824;51.178;13.546;2022-09-09T10:30:54;5.80;;;1.50;;
4420;SDS011;11824;51.178;13.546;2022-09-09T10:33:41;1.83;;;1.20;;
4420;SDS011;11824;51.178;13.546;2022-09-09T10:36:18;10.47;;;2.10;;
4420;SDS011;11824;51.178;13.546;2022-09-09T10:38:51;3.73;;;1.10;;
4420;SDS011;11824;51.178;13.546;2022-09-09T10:41:30;4.70;;;1.57;;
4420;SDS011;11824;51.178;13.546;2022-09-09T10:44:17;3.73;;;1.27;;
4420;SDS011;11824;51.178;13.546;2022-09-09T10:47:19;2.60;;;1.30;;
4420;SDS011;11824;51.178;13.546;2022-09-09T10:50:03;2.07;;;1.00;;
4420;SDS011;11824;51.178;13.546;2022-09-09T10:52:57;3.60;;;1.27;;
4420;SDS011;11824;51.178;13.546;2022-09-09T10:55:35;9.80;;;2.13;;
4420;SDS011;11824;51.178;13.546;2022-09-09T10:58:10;3.93;;;2.13;;
4420;SDS011;11824;51.178;13.546;2022-09-09T11:00:46;5.50;;;2.60;;
4420;SDS011;11824;51.178;13.546;2022-09-09T11:03:24;1.13;;;1.03;;
4420;SDS011;11824;51.178;13.546;2022-09-09T11:05:56;5.30;;;1.63;;
4420;SDS011;11824;51.178;13.546;2022-09-09T11:08:29;2.63;;;1.50;;
4420;SDS011;11824;51.178;13.546;2022-09-09T11:11:02;7.27;;;3.00;;
4420;SDS011;11824;51.178;13.546;2022-09-09T11:13:34;2.10;;;1.43;;
4420;SDS011;11824;51.178;13.546;2022-09-09T11:16:17;2.20;;;1.30;;
4420;SDS011;11824;51.178;13.546;2022-09-09T11:18:54;4.00;;;1.40;;
4420;SDS011;11824;51.178;13.546;2022-09-09T11:21:27;2.80;;;1.20;;
4420;SDS011;11824;51.178;13.546;2022-09-09T11:24:01;4.73;;;1.20;;
4420;SDS011;11824;51.178;13.546;2022-09-09T11:26:33;4.10;;;1.50;;
4420;SDS011;11824;51.178;13.546;2022-09-09T11:29:11;4.93;;;1.80;;
4420;SDS011;11824;51.178;13.546;2022-09-09T11:32:03;5.90;;;1.93;;
4420;SDS011;11824;51.178;13.546;2022-09-09T11:34:50;2.90;;;1.20;;
4420;SDS011;11824;51.178;13.546;2022-09-09T11:37:35;5.03;;;1.47;;
4420;SDS011;11824;51.178;13.546;2022-09-09T11:40:21;3.17;;;1.50;;
4420;SDS011;11824;51.178;13.546;2022-09-09T11:43:00;7.60;;;1.33;;
4420;SDS011;11824;51.178;13.546;2022-09-09T11:45:32;3.00;;;1.60;;
4420;SDS011;11824;51.178;13.546;2022-09-09T11:48:04;4.97;;;1.60;;
4420;SDS011;11824;51.178;13.546;2022-09-09T11:50:34;3.43;;;1.43;;
4420;SDS011;11824;51.178;13.546;2022-09-09T11:53:05;4.60;;;2.10;;
4420;SDS011;11824;51.178;13.546;2022-09-09T11:58:56;9.37;;;1.93;;
4420;SDS011;11824;51.178;13.546;2022-09-09T12:01:28;5.80;;;1.40;;
4420;SDS011;11824;51.178;13.546;2022-09-09T12:04:15;5.07;;;1.20;;
4420;SDS011;11824;51.178;13.546;2022-09-09T12:07:00;4.73;;;1.50;;
4420;SDS011;11824;51.178;13.546;2022-09-09T12:09:43;3.30;;;2.17;;
4420;SDS011;11824;51.178;13.546;2022-09-09T12:12:21;3.57;;;2.00;;
4420;SDS011;11824;51.178;13.546;2022-09-09T12:14:56;3.07;;;1.47;;
4420;SDS011;11824;51.178;13.546;2022-09-09T12:17:30;12.10;;;1.90;;
4420;SDS011;11824;51.178;13.546;2022-09-09T12:20:11;3.90;;;1.70;;
4420;SDS011;11824;51.178;13.546;2022-09-09T12:25:36;4.40;;;2.03;;
4420;SDS011;11824;51.178;13.546;2022-09-09T12:28:17;2.90;;;1.33;;
4420;SDS011;11824;51.178;13.546;2022-09-09T12:30:49;5.40;;;2.10;;
4420;SDS011;11824;51.178;13.546;2022-09-09T12:33:24;3.10;;;1.17;;
4420;SDS011;11824;51.178;13.546;2022-09-09T12:36:02;5.57;;;1.90;;
4420;SDS011;11824;51.178;13.546;2022-09-09T12:38:34;5.23;;;1.70;;
4420;SDS011;11824;51.178;13.546;2022-09-09T12:41:04;3.97;;;1.90;;
4420;SDS011;11824;51.178;13.546;2022-09-09T12:43:33;6.13;;;1.80;;
4420;SDS011;11824;51.178;13.546;2022-09-09T12:46:03;3.87;;;1.70;;
4420;SDS011;11824;51.178;13.546;2022-09-09T12:48:40;6.87;;;2.07;;
4420;SDS011;11824;51.178;13.546;2022-09-09T12:51:17;3.27;;;1.50;;
4420;SDS011;11824;51.178;13.546;2022-09-09T12:53:51;4.63;;;1.73;;
4420;SDS011;11824;51.178;13.546;2022-09-09T12:56:21;3.80;;;1.57;;
4420;SDS011;11824;51.178;13.546;2022-09-09T12:58:53;1.97;;;1.40;;
4420;SDS011;11824;51.178;13.546;2022-09-09T13:01:24;4.47;;;1.67;;
4420;SDS011;11824;51.178;13.546;2022-09-09T13:03:54;2.83;;;1.50;;
4420;SDS011;11824;51.178;13.546;2022-09-09T13:06:26;3.10;;;1.07;;
4420;SDS011;11824;51.178;13.546;2022-09-09T13:08:56;3.87;;;1.30;;
4420;SDS011;11824;51.178;13.546;2022-09-09T13:11:27;3.50;;;1.60;;
4420;SDS011;11824;51.178;13.546;2022-09-09T13:13:59;9.10;;;1.50;;
4420;SDS011;11824;51.178;13.546;2022-09-09T13:16:28;4.70;;;1.63;;
4420;SDS011;11824;51.178;13.546;2022-09-09T13:19:06;5.33;;;1.50;;
4420;SDS011;11824;51.178;13.546;2022-09-09T13:21:38;2.00;;;1.67;;
4420;SDS011;11824;51.178;13.546;2022-09-09T13:24:21;4.03;;;1.70;;
4420;SDS011;11824;51.178;13.546;2022-09-09T13:26:56;7.90;;;1.80;;
4420;SDS011;11824;51.178;13.546;2022-09-09T13:29:28;5.20;;;1.87;;
4420;SDS011;11824;51.178;13.546;2022-09-09T13:32:03;2.73;;;1.50;;
4420;SDS011;11824;51.178;13.546;2022-09-09T13:34:34;2.80;;;1.63;;
4420;SDS011;11824;51.178;13.546;2022-09-09T13:37:05;7.27;;;2.00;;
4420;SDS011;11824;51.178;13.546;2022-09-09T13:39:50;3.07;;;1.40;;
4420;SDS011;11824;51.178;13.546;2022-09-09T13:42:22;2.33;;;1.40;;
4420;SDS011;11824;51.178;13.546;2022-09-09T13:44:53;3.57;;;1.70;;
4420;SDS011;11824;51.178;13.546;2022-09-09T13:47:26;2.60;;;1.43;;
4420;SDS011;11824;51.178;13.546;2022-09-09T13:49:57;2.60;;;1.67;;
4420;SDS011;11824;51.178;13.546;2022-09-09T13:52:38;3.53;;;1.47;;
4420;SDS011;11824;51.178;13.546;2022-09-09T13:55:08;4.83;;;1.70;;
4420;SDS011;11824;51.178;13.546;2022-09-09T13:57:37;5.93;;;2.07;;
4420;SDS011;11824;51.178;13.546;2022-09-09T14:00:09;3.87;;;1.60;;
4420;SDS011;11824;51.178;13.546;2022-09-09T14:02:39;5.33;;;1.60;;
4420;SDS011;11824;51.178;13.546;2022-09-09T14:05:10;3.07;;;1.80;;
4420;SDS011;11824;51.178;13.546;2022-09-09T14:07:40;4.23;;;2.00;;
4420;SDS011;11824;51.178;13.546;2022-09-09T14:10:09;5.10;;;1.70;;
4420;SDS011;11824;51.178;13.546;2022-09-09T14:12:39;6.30;;;3.53;;
4420;SDS011;11824;51.178;13.546;2022-09-09T14:15:09;3.23;;;1.43;;
4420;SDS011;11824;51.178;13.546;2022-09-09T14:17:38;4.67;;;1.60;;
4420;SDS011;11824;51.178;13.546;2022-09-09T14:20:07;5.70;;;1.80;;
4420;SDS011;11824;51.178;13.546;2022-09-09T14:22:39;4.60;;;1.63;;
4420;SDS011;11824;51.178;13.546;2022-09-09T14:25:08;2.20;;;1.40;;
4420;SDS011;11824;51.178;13.546;2022-09-09T14:27:37;7.57;;;1.20;;
4420;SDS011;11824;51.178;13.546;2022-09-09T14:30:07;5.63;;;1.63;;
4420;SDS011;11824;51.178;13.546;2022-09-09T14:32:37;5.97;;;1.97;;
4420;SDS011;11824;51.178;13.546;2022-09-09T14:35:06;4.23;;;1.40;;
4420;SDS011;11824;51.178;13.546;2022-09-09T14:37:35;6.00;;;1.50;;
4420;SDS011;11824;51.178;13.546;2022-09-09T14:40:07;6.47;;;1.77;;
4420;SDS011;11824;51.178;13.546;2022-09-09T14:42:37;9.73;;;1.80;;
4420;SDS011;11824;51.178;13.546;2022-09-09T14:45:09;3.23;;;1.30;;
4420;SDS011;11824;51.178;13.546;2022-09-09T14:47:38;7.00;;;1.30;;
4420;SDS011;11824;51.178;13.546;2022-09-09T14:50:07;3.37;;;2.00;;
4420;SDS011;11824;51.178;13.546;2022-09-09T14:52:38;3.00;;;1.70;;
4420;SDS011;11824;51.178;13.546;2022-09-09T14:55:08;2.90;;;1.43;;
4420;SDS011;11824;51.178;13.546;2022-09-09T14:57:37;3.73;;;1.33;;
4420;SDS011;11824;51.178;13.546;2022-09-09T15:00:07;2.40;;;1.33;;
4420;SDS011;11824;51.178;13.546;2022-09-09T15:02:37;3.33;;;1.40;;
4420;SDS011;11824;51.178;13.546;2022-09-09T15:05:06;4.60;;;1.33;;
4420;SDS011;11824;51.178;13.546;2022-09-09T15:07:36;6.20;;;1.70;;
4420;SDS011;11824;51.178;13.546;2022-09-09T15:10:05;3.07;;;1.50;;
4420;SDS011;11824;51.178;13.546;2022-09-09T15:12:35;4.13;;;1.60;;
4420;SDS011;11824;51.178;13.546;2022-09-09T15:15:05;3.40;;;1.40;;
4420;SDS011;11824;51.178;13.546;2022-09-09T15:17:34;3.70;;;1.53;;
4420;SDS011;11824;51.178;13.546;2022-09-09T15:20:02;4.07;;;1.70;;
4420;SDS011;11824;51.178;13.546;2022-09-09T15:22:33;5.07;;;1.90;;
4420;SDS011;11824;51.178;13.546;2022-09-09T15:25:03;3.30;;;1.70;;
4420;SDS011;11824;51.178;13.546;2022-09-09T15:27:35;1.83;;;1.10;;
4420;SDS011;11824;51.178;13.546;2022-09-09T15:30:05;2.30;;;1.63;;
4420;SDS011;11824;51.178;13.546;2022-09-09T15:32:35;3.20;;;1.60;;
4420;SDS011;11824;51.178;13.546;2022-09-09T15:35:05;6.30;;;1.90;;
4420;SDS011;11824;51.178;13.546;2022-09-09T15:37:34;5.43;;;1.77;;